createdAt,value
2023-06-17T00:00:09.580Z,5.37
2023-06-17T00:02:37.708Z,6.07
2023-06-17T00:05:07.280Z,5.90
2023-06-17T00:07:35.111Z,5.87
2023-06-17T00:10:03.238Z,5.80
2023-06-17T00:12:32.956Z,9.57
2023-06-17T00:15:02.435Z,5.60
2023-06-17T00:17:32.452Z,5.67
2023-06-17T00:20:02.094Z,6.63
2023-06-17T00:22:30.729Z,6.40
2023-06-17T00:24:58.801Z,6.30
2023-06-17T00:27:26.591Z,6.83
2023-06-17T00:29:54.938Z,6.10
2023-06-17T00:32:22.770Z,6.27
2023-06-17T00:34:51.983Z,6.57
2023-06-17T00:37:19.788Z,5.17
2023-06-17T00:39:47.575Z,5.50
2023-06-17T00:42:15.639Z,5.10
2023-06-17T00:44:43.971Z,5.73
2023-06-17T00:47:13.941Z,5.47
2023-06-17T00:49:42.825Z,5.60
2023-06-17T00:54:44.534Z,5.30
2023-06-17T00:57:14.653Z,4.83
2023-06-17T00:59:44.254Z,5.00
2023-06-17T01:02:14.805Z,5.23
2023-06-17T01:04:47.409Z,4.93
2023-06-17T01:07:25.857Z,5.27
2023-06-17T01:10:03.975Z,5.87
2023-06-17T01:12:32.428Z,5.30
2023-06-17T01:15:02.245Z,5.37
2023-06-17T01:17:31.105Z,6.13
2023-06-17T01:20:00.012Z,5.60
2023-06-17T01:22:29.451Z,5.77
2023-06-17T01:25:02.253Z,5.23
2023-06-17T01:27:30.605Z,4.87
2023-06-17T01:29:59.606Z,5.47
2023-06-17T01:32:27.576Z,5.90
2023-06-17T01:35:01.681Z,5.43
2023-06-17T01:37:36.987Z,5.23
2023-06-17T01:40:07.755Z,5.17
2023-06-17T01:42:38.625Z,5.53
2023-06-17T01:45:08.814Z,5.43
2023-06-17T01:47:36.790Z,6.00
2023-06-17T01:50:06.628Z,5.23
2023-06-17T01:52:35.311Z,5.87
2023-06-17T01:55:04.058Z,5.40
2023-06-17T01:57:33.231Z,5.50
2023-06-17T02:00:01.068Z,5.87
2023-06-17T02:02:28.952Z,5.70
2023-06-17T02:04:57.046Z,5.43
2023-06-17T02:07:26.710Z,5.07
2023-06-17T02:09:54.589Z,5.00
2023-06-17T02:12:23.159Z,4.63
2023-06-17T02:14:52.359Z,5.50
2023-06-17T02:17:20.144Z,5.27
2023-06-17T02:19:48.167Z,5.63
2023-06-17T02:22:16.121Z,5.77
2023-06-17T02:24:44.232Z,5.33
2023-06-17T02:27:12.060Z,5.57
2023-06-17T02:29:40.065Z,5.33
2023-06-17T02:32:10.980Z,5.20
2023-06-17T02:34:39.040Z,5.73
2023-06-17T02:37:08.533Z,4.90
2023-06-17T02:39:36.349Z,6.03
2023-06-17T02:42:05.117Z,6.10
2023-06-17T02:44:32.932Z,5.23
2023-06-17T02:47:02.409Z,5.73
2023-06-17T02:49:31.778Z,5.67
2023-06-17T02:51:59.582Z,6.03
2023-06-17T02:54:27.857Z,5.43
2023-06-17T02:56:56.736Z,5.30
2023-06-17T02:59:24.860Z,5.47
2023-06-17T03:01:52.932Z,5.63
2023-06-17T03:04:21.772Z,4.97
2023-06-17T03:06:52.314Z,5.30
2023-06-17T03:09:20.873Z,4.63
2023-06-17T03:11:48.727Z,5.20
2023-06-17T03:14:20.434Z,4.67
2023-06-17T03:16:48.534Z,5.40
2023-06-17T03:19:16.746Z,5.23
2023-06-17T03:21:46.217Z,5.20
2023-06-17T03:24:15.492Z,5.67
2023-06-17T03:26:43.416Z,5.70
2023-06-17T03:29:11.415Z,6.00
2023-06-17T03:31:39.470Z,5.90
2023-06-17T03:34:07.276Z,6.00
2023-06-17T03:36:35.071Z,5.70
2023-06-17T03:39:02.924Z,5.30
2023-06-17T03:41:32.113Z,5.30
2023-06-17T03:43:59.927Z,5.60
2023-06-17T03:46:27.731Z,4.90
2023-06-17T03:48:55.686Z,5.40
2023-06-17T03:51:23.499Z,5.17
2023-06-17T03:53:51.425Z,5.50
2023-06-17T03:56:19.791Z,5.20
2023-06-17T03:58:48.922Z,5.07
2023-06-17T04:01:16.786Z,5.67
2023-06-17T04:03:44.924Z,5.00
2023-06-17T04:06:14.997Z,4.70
2023-06-17T04:08:45.506Z,4.87
2023-06-17T04:11:13.330Z,5.47
2023-06-17T04:13:41.293Z,5.00
2023-06-17T04:16:10.453Z,5.13
2023-06-17T04:18:38.272Z,5.40
2023-06-17T04:21:06.595Z,4.27
2023-06-17T04:23:34.598Z,7.13
2023-06-17T04:26:02.883Z,6.53
2023-06-17T04:28:33.753Z,6.33
2023-06-17T04:31:03.304Z,5.87
2023-06-17T04:33:32.668Z,6.67
2023-06-17T04:36:00.529Z,6.57
2023-06-17T04:38:28.394Z,7.13
2023-06-17T04:40:56.166Z,6.67
2023-06-17T04:43:24.171Z,5.20
2023-06-17T04:45:52.550Z,5.03
2023-06-17T04:48:20.756Z,5.23
2023-06-17T04:50:50.130Z,5.40
2023-06-17T04:53:19.290Z,6.00
2023-06-17T04:55:47.080Z,5.87
2023-06-17T04:58:15.053Z,6.27
2023-06-17T05:00:42.859Z,6.30
2023-06-17T05:03:10.759Z,5.93
2023-06-17T05:05:38.629Z,5.67
2023-06-17T05:08:07.940Z,5.30
2023-06-17T05:10:35.783Z,6.13
2023-06-17T05:13:03.599Z,5.27
2023-06-17T05:15:31.388Z,5.60
2023-06-17T05:17:59.219Z,5.40
2023-06-17T05:20:27.021Z,5.10
2023-06-17T05:22:54.810Z,6.43
2023-06-17T05:25:24.007Z,5.50
2023-06-17T05:27:52.286Z,5.20
2023-06-17T05:30:20.375Z,5.33
2023-06-17T05:32:48.586Z,5.90
2023-06-17T05:35:16.452Z,5.57
2023-06-17T05:37:44.244Z,5.80
2023-06-17T05:40:13.058Z,5.27
2023-06-17T05:42:42.211Z,5.10
2023-06-17T05:45:10.239Z,5.40
2023-06-17T05:47:38.035Z,5.60
2023-06-17T05:50:06.428Z,5.23
2023-06-17T05:52:34.271Z,5.40
2023-06-17T05:55:02.061Z,5.63
2023-06-17T05:57:29.825Z,5.30
2023-06-17T05:59:58.942Z,5.10
2023-06-17T06:02:26.765Z,5.90
2023-06-17T06:04:54.595Z,5.20
2023-06-17T06:07:22.362Z,5.90
2023-06-17T06:09:50.167Z,4.80
2023-06-17T06:12:17.958Z,5.23
2023-06-17T06:14:45.795Z,5.37
2023-06-17T06:17:14.985Z,5.63
2023-06-17T06:19:42.737Z,5.53
2023-06-17T06:22:10.577Z,5.10
2023-06-17T06:24:38.566Z,4.90
2023-06-17T06:27:06.891Z,4.73
2023-06-17T06:29:34.704Z,5.23
2023-06-17T06:32:02.533Z,4.83
2023-06-17T06:34:31.895Z,4.57
2023-06-17T06:36:59.692Z,4.73
2023-06-17T06:39:27.863Z,4.97
2023-06-17T06:41:55.936Z,4.97
2023-06-17T06:44:23.711Z,5.10
2023-06-17T06:46:51.502Z,4.73
2023-06-17T06:49:19.300Z,4.80
2023-06-17T06:51:48.425Z,4.57
2023-06-17T06:54:16.326Z,4.68
2023-06-17T06:56:44.590Z,4.22
2023-06-17T06:59:12.353Z,5.68
2023-06-17T07:01:40.601Z,5.13
2023-06-17T07:04:08.452Z,5.18
2023-06-17T07:06:36.472Z,4.93
2023-06-17T07:09:05.617Z,4.63
2023-06-17T07:11:33.468Z,5.00
2023-06-17T07:14:01.355Z,4.53
2023-06-17T07:16:29.171Z,5.18
2023-06-17T07:18:56.997Z,4.70
2023-06-17T07:21:24.779Z,5.60
2023-06-17T07:23:52.807Z,5.07
2023-06-17T07:26:22.036Z,5.38
2023-06-17T07:28:49.813Z,4.88
2023-06-17T07:31:17.758Z,4.88
2023-06-17T07:33:46.112Z,5.88
2023-06-17T07:36:14.323Z,5.20
2023-06-17T07:38:43.241Z,5.25
2023-06-17T07:41:11.139Z,5.25
2023-06-17T07:43:40.296Z,4.93
2023-06-17T07:46:08.571Z,5.43
2023-06-17T07:48:36.509Z,5.50
2023-06-17T07:51:04.370Z,5.25
2023-06-17T07:53:32.127Z,5.07
2023-06-17T07:55:59.919Z,5.00
2023-06-17T07:58:27.693Z,5.55
2023-06-17T08:00:56.816Z,5.50
2023-06-17T08:03:24.708Z,5.10
2023-06-17T08:05:52.542Z,5.47
2023-06-17T08:08:21.270Z,5.35
2023-06-17T08:10:50.125Z,5.50
2023-06-17T08:13:17.920Z,5.25
2023-06-17T08:15:45.718Z,5.03
2023-06-17T08:18:14.861Z,5.30
2023-06-17T08:20:42.637Z,4.80
2023-06-17T08:23:10.413Z,5.28
2023-06-17T08:25:38.199Z,5.15
2023-06-17T08:28:06.162Z,4.53
2023-06-17T08:30:33.984Z,4.55
2023-06-17T08:33:01.930Z,4.80
2023-06-17T08:35:31.097Z,4.65
2023-06-17T08:37:58.878Z,5.70
2023-06-17T08:40:28.776Z,4.70
2023-06-17T08:43:01.866Z,5.22
2023-06-17T08:45:29.813Z,5.20
2023-06-17T08:47:59.079Z,4.78
2023-06-17T08:50:28.553Z,4.45
2023-06-17T08:52:58.561Z,4.65
2023-06-17T08:55:26.490Z,5.25
2023-06-17T08:57:54.253Z,4.28
2023-06-17T09:00:22.232Z,4.50
2023-06-17T09:02:51.157Z,4.28
2023-06-17T09:05:19.133Z,4.80
2023-06-17T09:07:47.046Z,4.93
2023-06-17T09:10:17.763Z,4.53
2023-06-17T09:12:45.744Z,5.07
2023-06-17T09:15:17.733Z,4.63
2023-06-17T09:17:47.183Z,4.47
2023-06-17T09:20:17.397Z,4.28
2023-06-17T09:22:47.265Z,4.47
2023-06-17T09:25:17.538Z,4.72
2023-06-17T09:30:24.379Z,4.55
2023-06-17T09:32:53.823Z,5.07
2023-06-17T09:35:21.818Z,4.57
2023-06-17T09:38:02.484Z,4.43
2023-06-17T09:40:34.498Z,4.80
2023-06-17T09:43:20.812Z,5.10
2023-06-17T09:45:55.845Z,4.22
2023-06-17T09:48:25.879Z,4.72
2023-06-17T09:50:57.154Z,4.75
2023-06-17T09:53:28.373Z,4.60
2023-06-17T09:55:58.504Z,4.45
2023-06-17T09:58:30.145Z,4.70
2023-06-17T10:00:59.008Z,4.65
2023-06-17T10:03:27.949Z,5.38
2023-06-17T10:06:01.267Z,5.07
2023-06-17T10:08:31.740Z,4.22
2023-06-17T10:11:01.952Z,4.47
2023-06-17T10:13:33.522Z,4.90
2023-06-17T10:16:02.694Z,4.75
2023-06-17T10:18:31.811Z,4.70
2023-06-17T10:21:01.267Z,4.88
2023-06-17T10:23:31.439Z,4.47
2023-06-17T10:25:59.371Z,5.28
2023-06-17T10:28:44.774Z,4.60
2023-06-17T10:31:25.085Z,5.10
2023-06-17T10:33:55.856Z,4.78
2023-06-17T10:36:24.439Z,4.55
2023-06-17T10:38:57.586Z,4.57
2023-06-17T10:42:01.049Z,4.60
2023-06-17T10:44:41.147Z,5.00
2023-06-17T10:47:22.058Z,4.53
2023-06-17T10:49:51.059Z,4.78
2023-06-17T10:52:19.201Z,5.75
2023-06-17T10:54:52.586Z,4.80
2023-06-17T10:57:33.060Z,4.45
2023-06-17T11:00:02.234Z,5.22
2023-06-17T11:02:32.061Z,4.80
2023-06-17T11:05:02.530Z,5.40
2023-06-17T11:07:31.458Z,4.63
2023-06-17T11:10:00.946Z,4.72
2023-06-17T11:12:29.120Z,4.82
2023-06-17T11:15:01.144Z,5.13
2023-06-17T11:17:29.376Z,4.75
2023-06-17T11:19:58.057Z,4.57
2023-06-17T11:22:25.865Z,4.20
2023-06-17T11:24:53.678Z,5.07
2023-06-17T11:27:21.533Z,4.63
2023-06-17T11:29:49.442Z,4.38
2023-06-17T11:32:22.711Z,4.20
2023-06-17T11:34:52.128Z,4.20
2023-06-17T11:37:21.252Z,3.72
2023-06-17T11:39:49.078Z,4.53
2023-06-17T11:42:17.574Z,4.38
2023-06-17T11:44:45.488Z,4.65
2023-06-17T11:47:13.261Z,4.38
2023-06-17T11:49:43.971Z,4.28
2023-06-17T11:52:12.884Z,4.18
2023-06-17T11:54:46.639Z,4.30
2023-06-17T11:57:18.962Z,3.65
2023-06-17T11:59:46.863Z,4.05
2023-06-17T12:02:15.127Z,4.97
2023-06-17T12:04:46.819Z,4.57
2023-06-17T12:07:14.982Z,4.25
2023-06-17T12:09:52.973Z,4.43
2023-06-17T12:12:28.396Z,4.40
2023-06-17T12:15:02.742Z,4.40
2023-06-17T12:17:39.895Z,4.10
2023-06-17T12:20:14.286Z,4.53
2023-06-17T12:22:42.079Z,4.28
2023-06-17T12:25:11.104Z,4.40
2023-06-17T12:27:39.502Z,4.55
2023-06-17T12:30:09.332Z,4.30
2023-06-17T12:32:39.504Z,4.15
2023-06-17T12:35:10.900Z,4.20
2023-06-17T12:37:42.062Z,4.10
2023-06-17T12:40:10.822Z,4.07
2023-06-17T12:42:39.597Z,3.70
2023-06-17T12:45:08.729Z,3.90
2023-06-17T12:47:37.767Z,3.97
2023-06-17T12:50:06.178Z,3.97
2023-06-17T12:52:35.798Z,3.92
2023-06-17T12:55:05.742Z,3.97
2023-06-17T12:57:33.571Z,4.18
2023-06-17T13:00:02.107Z,4.07
2023-06-17T13:02:32.310Z,4.00
2023-06-17T13:05:00.529Z,4.63
2023-06-17T13:07:29.144Z,4.30
2023-06-17T13:09:58.357Z,4.38
2023-06-17T13:12:26.282Z,4.15
2023-06-17T13:14:54.082Z,3.85
2023-06-17T13:17:22.188Z,4.15
2023-06-17T13:19:49.961Z,4.40
2023-06-17T13:22:17.957Z,3.72
2023-06-17T13:24:45.722Z,3.67
2023-06-17T13:27:19.631Z,4.05
2023-06-17T13:29:47.503Z,3.72
2023-06-17T13:32:17.120Z,3.75
2023-06-17T13:34:47.203Z,3.80
2023-06-17T13:37:15.011Z,3.70
2023-06-17T13:39:42.950Z,3.53
2023-06-17T13:42:11.020Z,3.70
2023-06-17T13:44:40.348Z,4.50
2023-06-17T13:47:08.505Z,3.92
2023-06-17T13:49:36.526Z,4.00
2023-06-17T13:52:06.602Z,3.72
2023-06-17T13:54:34.387Z,3.97
2023-06-17T13:57:02.140Z,4.22
2023-06-17T13:59:30.149Z,3.97
2023-06-17T14:01:59.315Z,3.70
2023-06-17T14:04:27.830Z,4.25
2023-06-17T14:06:56.569Z,4.18
2023-06-17T14:09:24.343Z,4.57
2023-06-17T14:11:52.403Z,4.10
2023-06-17T14:14:20.308Z,3.85
2023-06-17T14:16:48.087Z,3.97
2023-06-17T14:19:17.289Z,4.00
2023-06-17T14:21:56.154Z,4.68
2023-06-17T14:24:24.252Z,3.92
2023-06-17T14:27:20.858Z,4.30
2023-06-17T14:29:49.530Z,3.90
2023-06-17T14:32:18.313Z,4.30
2023-06-17T14:34:47.738Z,3.90
2023-06-17T14:37:15.528Z,4.40
2023-06-17T14:39:43.291Z,4.07
2023-06-17T14:42:12.733Z,4.10
2023-06-17T14:44:40.642Z,4.63
2023-06-17T14:47:08.587Z,4.20
2023-06-17T14:49:36.428Z,3.72
2023-06-17T14:52:05.940Z,4.30
2023-06-17T14:54:34.342Z,3.95
2023-06-17T14:57:02.430Z,4.25
2023-06-17T14:59:30.232Z,3.90
2023-06-17T15:01:58.053Z,4.63
2023-06-17T15:04:25.807Z,3.90
2023-06-17T15:06:53.591Z,3.88
2023-06-17T15:09:29.246Z,3.70
2023-06-17T15:11:58.041Z,3.83
2023-06-17T15:14:27.268Z,4.10
2023-06-17T15:16:55.108Z,4.28
2023-06-17T15:19:23.172Z,4.18
2023-06-17T15:21:51.040Z,4.70
2023-06-17T15:24:19.231Z,3.97
2023-06-17T15:26:48.881Z,4.45
2023-06-17T15:29:17.290Z,4.75
2023-06-17T15:31:45.303Z,5.30
2023-06-17T15:34:13.155Z,5.38
2023-06-17T15:36:41.423Z,5.18
2023-06-17T15:39:19.971Z,5.43
2023-06-17T15:41:50.387Z,5.45
2023-06-17T15:44:18.354Z,4.78
2023-06-17T15:46:46.487Z,5.35
2023-06-17T15:49:14.644Z,5.28
2023-06-17T15:51:42.435Z,5.68
2023-06-17T15:54:11.337Z,5.45
2023-06-17T15:56:40.275Z,5.03
2023-06-17T15:59:09.401Z,5.35
2023-06-17T16:01:37.228Z,5.30
2023-06-17T16:04:36.598Z,4.70
2023-06-17T16:07:06.698Z,4.82
2023-06-17T16:09:37.119Z,5.07
2023-06-17T16:12:05.902Z,5.18
2023-06-17T16:14:36.805Z,4.90
2023-06-17T16:17:07.413Z,4.78
2023-06-17T16:19:36.719Z,5.53
2023-06-17T16:22:05.826Z,5.25
2023-06-17T16:24:34.459Z,4.88
2023-06-17T16:27:02.489Z,4.95
2023-06-17T16:29:32.004Z,5.15
2023-06-17T16:32:01.114Z,5.20
2023-06-17T16:34:29.073Z,4.97
2023-06-17T16:36:56.847Z,5.03
2023-06-17T16:39:24.656Z,5.45
2023-06-17T16:41:52.438Z,5.18
2023-06-17T16:44:20.526Z,5.07
2023-06-17T16:46:48.761Z,5.65
2023-06-17T16:49:17.961Z,5.40
2023-06-17T16:51:46.548Z,5.05
2023-06-17T16:54:14.320Z,5.35
2023-06-17T16:56:42.092Z,5.38
2023-06-17T16:59:09.913Z,6.05
2023-06-17T17:01:37.812Z,4.90
2023-06-17T17:04:10.989Z,5.43
2023-06-17T17:06:40.821Z,5.63
2023-06-17T17:09:08.760Z,5.70
2023-06-17T17:11:36.661Z,5.25
2023-06-17T17:14:04.585Z,5.60
2023-06-17T17:16:32.582Z,5.60
2023-06-17T17:19:00.411Z,5.45
2023-06-17T17:21:28.782Z,5.38
2023-06-17T17:23:58.058Z,5.20
2023-06-17T17:26:26.258Z,5.50
2023-06-17T17:28:54.040Z,6.07
2023-06-17T17:31:21.831Z,5.53
2023-06-17T17:33:51.664Z,5.35
2023-06-17T17:36:19.946Z,5.40
2023-06-17T17:38:48.498Z,6.10
2023-06-17T17:41:17.643Z,5.47
2023-06-17T17:43:45.453Z,5.60
2023-06-17T17:46:13.299Z,5.20
2023-06-17T17:48:41.677Z,5.18
2023-06-17T17:51:09.476Z,5.15
2023-06-17T17:53:37.431Z,5.43
2023-06-17T17:56:05.568Z,5.25
2023-06-17T17:58:34.728Z,4.78
2023-06-17T18:01:04.373Z,5.30
2023-06-17T18:03:32.515Z,4.95
2023-06-17T18:06:00.531Z,4.25
2023-06-17T18:08:28.323Z,4.90
2023-06-17T18:10:56.104Z,5.32
2023-06-17T18:13:23.859Z,4.80
2023-06-17T18:15:53.050Z,5.20
2023-06-17T18:18:20.881Z,4.95
2023-06-17T18:20:48.772Z,5.32
2023-06-17T18:23:16.612Z,5.13
2023-06-17T18:25:44.485Z,4.85
2023-06-17T18:28:12.242Z,4.70
2023-06-17T18:30:40.027Z,4.57
2023-06-17T18:33:09.157Z,5.25
2023-06-17T18:35:36.982Z,4.68
2023-06-17T18:38:04.764Z,5.35
2023-06-17T18:40:32.560Z,4.35
2023-06-17T18:43:00.392Z,5.53
2023-06-17T18:45:28.279Z,5.28
2023-06-17T18:47:56.247Z,5.60
2023-06-17T18:50:26.052Z,5.18
2023-06-17T18:52:53.968Z,5.25
2023-06-17T18:55:21.761Z,5.10
2023-06-17T18:57:50.092Z,5.65
2023-06-17T19:00:18.963Z,5.70
2023-06-17T19:02:47.077Z,5.15
2023-06-17T19:05:14.847Z,5.45
2023-06-17T19:07:45.257Z,5.40
2023-06-17T19:10:13.278Z,5.80
2023-06-17T19:12:41.212Z,5.70
2023-06-17T19:15:10.593Z,4.78
2023-06-17T19:17:38.818Z,5.57
2023-06-17T19:20:08.181Z,5.57
2023-06-17T19:22:36.762Z,5.37
2023-06-17T19:25:06.689Z,5.70
2023-06-17T19:27:35.000Z,8.30
2023-06-17T19:30:04.465Z,6.27
2023-06-17T19:32:33.035Z,5.87
2023-06-17T19:35:01.623Z,5.27
2023-06-17T19:37:30.709Z,5.47
2023-06-17T19:39:59.205Z,5.70
2023-06-17T19:42:28.331Z,5.80
2023-06-17T19:44:57.880Z,5.50
2023-06-17T19:47:27.483Z,5.13
2023-06-17T19:49:56.715Z,5.23
2023-06-17T19:52:24.625Z,7.33
2023-06-17T19:54:53.704Z,9.03
2023-06-17T19:57:21.509Z,8.37
2023-06-17T19:59:52.047Z,7.60
2023-06-17T20:02:20.588Z,6.73
2023-06-17T20:04:48.492Z,6.20
2023-06-17T20:07:16.255Z,5.97
2023-06-17T20:09:44.043Z,5.57
2023-06-17T20:12:13.072Z,6.00
2023-06-17T20:14:41.348Z,5.37
2023-06-17T20:17:11.432Z,5.87
2023-06-17T20:19:39.378Z,5.90
2023-06-17T20:22:07.540Z,5.23
2023-06-17T20:24:35.497Z,5.57
2023-06-17T20:27:03.398Z,5.67
2023-06-17T20:29:31.173Z,5.63
2023-06-17T20:31:58.970Z,5.87
2023-06-17T20:34:28.078Z,5.70
2023-06-17T20:36:55.832Z,5.10
2023-06-17T20:39:23.592Z,5.60
2023-06-17T20:41:51.370Z,6.17
2023-06-17T20:44:19.239Z,6.60
2023-06-17T20:46:47.106Z,6.77
2023-06-17T20:49:14.987Z,7.10
2023-06-17T20:51:44.074Z,7.57
2023-06-17T20:54:11.897Z,7.57
2023-06-17T20:56:42.501Z,7.40
2023-06-17T20:59:10.408Z,5.97
2023-06-17T21:01:38.205Z,5.90
2023-06-17T21:04:06.239Z,5.90
2023-06-17T21:06:33.994Z,5.43
2023-06-17T21:09:03.541Z,6.00
2023-06-17T21:11:31.558Z,5.30
2023-06-17T21:14:01.022Z,6.17
2023-06-17T21:16:29.659Z,6.27
2023-06-17T21:18:57.601Z,5.77
2023-06-17T21:21:27.868Z,5.03
2023-06-17T21:23:55.751Z,5.83
2023-06-17T21:26:24.914Z,5.43
2023-06-17T21:28:52.713Z,5.20
2023-06-17T21:31:20.557Z,5.57
2023-06-17T21:33:51.053Z,5.00
2023-06-17T21:36:18.913Z,5.33
2023-06-17T21:38:46.739Z,5.37
2023-06-17T21:41:14.543Z,6.07
2023-06-17T21:43:43.643Z,6.07
2023-06-17T21:46:11.498Z,5.37
2023-06-17T21:48:43.006Z,5.60
2023-06-17T21:51:10.856Z,6.37
2023-06-17T21:53:38.629Z,5.60
2023-06-17T21:56:06.641Z,5.30
2023-06-17T21:58:34.428Z,5.63
2023-06-17T22:01:03.661Z,4.70
2023-06-17T22:03:31.540Z,6.30
2023-06-17T22:05:59.394Z,6.13
2023-06-17T22:08:37.970Z,5.87
2023-06-17T22:11:09.888Z,6.97
2023-06-17T22:13:37.741Z,6.53
2023-06-17T22:16:07.141Z,6.37
2023-06-17T22:18:35.103Z,6.33
2023-06-17T22:21:02.903Z,5.77
2023-06-17T22:23:30.660Z,5.53
2023-06-17T22:25:58.425Z,5.80
2023-06-17T22:28:26.573Z,5.67
2023-06-17T22:30:54.450Z,5.10
2023-06-17T22:33:23.585Z,5.67
2023-06-17T22:35:51.442Z,5.97
2023-06-17T22:38:19.244Z,5.30
2023-06-17T22:40:47.022Z,5.47
2023-06-17T22:43:16.667Z,5.73
2023-06-17T22:45:44.502Z,6.50
2023-06-17T22:48:12.292Z,5.60
2023-06-17T22:50:41.607Z,5.70
2023-06-17T22:53:09.448Z,6.00
2023-06-17T22:55:37.995Z,6.33
2023-06-17T22:58:05.826Z,5.47
2023-06-17T23:00:33.588Z,5.67
2023-06-17T23:03:01.448Z,5.40
2023-06-17T23:05:29.337Z,5.50
2023-06-17T23:07:58.422Z,5.30
2023-06-17T23:10:26.251Z,5.30
2023-06-17T23:12:54.019Z,6.13
2023-06-17T23:15:21.821Z,5.37
2023-06-17T23:17:49.740Z,5.07
2023-06-17T23:20:17.630Z,5.97
2023-06-17T23:22:45.404Z,5.77
2023-06-17T23:25:16.827Z,5.87
2023-06-17T23:27:49.577Z,5.60
2023-06-17T23:30:18.683Z,5.60
2023-06-17T23:32:47.618Z,5.90
2023-06-17T23:35:15.629Z,6.73
2023-06-17T23:37:43.583Z,6.90
2023-06-17T23:40:12.112Z,6.37
2023-06-17T23:42:41.501Z,6.23
2023-06-17T23:45:12.722Z,6.07
2023-06-17T23:47:40.990Z,6.33
2023-06-17T23:50:09.439Z,5.93
2023-06-17T23:52:37.203Z,6.17
2023-06-17T23:55:05.451Z,6.00
2023-06-17T23:57:33.225Z,6.50
